Brentwood, New York
Current Conditions -  °F | °C
As of 1:56 PM on Monday 20 Oct 2014 (Local Time) from KISP Reporting Station
Broken Clouds Broken Clouds  
Wind Chill: 57°   Ceiling: 25000
Heat Index: 57°   Visibility: 10mi
Dew Point: 38°   Wind: 10mph
Humidity: 49%   Direction: 220°SW
Pressure: 30.04"   Gusts: 22mph
Location:  40.78°N, 73.25°W
Report Text: KISP 201756Z 22009G19KT 10SM FEW120 FEW160 BKN250 14/03 A3004 RMK AO2 SLP172 T01390033 10139 20039 56024
Loading
Personal Weather Stations






























Interactive Weather Map
Tropical Storm Tracking
New forecast layout! Learn more

10-Day Weather Forecast

Advertisements
Track Severe Weather on mobile